Time;durP1;ratioP1;P1;durP2;ratioP2;P2;SDS_P1;SDS_P2;PMS_P1;PMS_P2;Temp;Humidity;BMP_temperature;BMP_pressure;BME280_temperature;BME280_humidity;BME280_pressure;Samples;Min_cycle;Max_cycle;Signal;HPM_P1;HPM_P2
2023/08/11 00:02:26;;;;;;;7.23;6.60;;;17.00;99.90;;;;;;4988695;28;20224;-50
2023/08/11 00:04:53;;;;;;;7.43;6.10;;;17.00;99.90;;;;;;4988479;28;20290;-50
2023/08/11 00:07:20;;;;;;;5.77;5.47;;;17.00;99.90;;;;;;4991944;28;20196;-50
2023/08/11 00:09:47;;;;;;;6.03;5.53;;;17.00;99.90;;;;;;4991427;28;20617;-50
2023/08/11 00:12:14;;;;;;;6.53;5.93;;;16.90;99.90;;;;;;4990002;28;20219;-50
2023/08/11 00:14:42;;;;;;;7.27;6.63;;;17.00;99.90;;;;;;4991898;28;20230;-50
2023/08/11 00:17:10;;;;;;;6.07;5.67;;;16.90;99.90;;;;;;4992002;28;20262;-50
2023/08/11 00:19:37;;;;;;;6.33;5.73;;;16.90;99.90;;;;;;4991027;28;20287;-50
2023/08/11 00:22:06;;;;;;;4.60;4.40;;;16.90;99.90;;;;;;4989869;28;20228;-50
2023/08/11 00:24:33;;;;;;;6.43;4.27;;;16.90;99.90;;;;;;4981689;28;20589;-50
2023/08/11 00:27:02;;;;;;;4.80;4.40;;;16.90;99.90;;;;;;4989603;28;20204;-51
2023/08/11 00:29:31;;;;;;;4.30;4.07;;;16.90;99.90;;;;;;4991759;28;20200;-50
2023/08/11 00:31:59;;;;;;;4.40;4.03;;;16.80;99.90;;;;;;4991685;28;20255;-51
2023/08/11 00:34:26;;;;;;;5.50;5.10;;;16.80;99.90;;;;;;4988896;28;20274;-51
2023/08/11 00:36:55;;;;;;;4.90;4.47;;;16.70;99.90;;;;;;4990758;28;20277;-50
2023/08/11 00:39:22;;;;;;;5.47;4.97;;;16.70;99.90;;;;;;4991498;28;20689;-50
2023/08/11 00:41:49;;;;;;;4.40;4.20;;;16.70;99.90;;;;;;4991270;28;20610;-51
2023/08/11 00:44:16;;;;;;;5.40;5.00;;;16.70;99.90;;;;;;4990511;28;20282;-51
2023/08/11 00:46:45;;;;;;;4.73;4.43;;;16.70;99.90;;;;;;4981390;28;20208;-50
2023/08/11 00:49:14;;;;;;;5.60;5.17;;;16.70;99.90;;;;;;4988234;28;20291;-51
2023/08/11 00:51:43;;;;;;;5.10;4.70;;;16.80;99.90;;;;;;4991384;28;20255;-50
2023/08/11 00:54:11;;;;;;;5.27;4.87;;;16.70;99.90;;;;;;4990514;28;20286;-51
2023/08/11 00:56:43;;;;;;;5.70;5.07;;;16.80;99.90;;;;;;4983328;28;20563;-51
2023/08/11 00:59:12;;;;;;;4.57;4.20;;;16.80;99.90;;;;;;4971861;28;20236;-50
2023/08/11 01:01:40;;;;;;;5.73;5.23;;;16.80;99.90;;;;;;4990330;28;20227;-51
2023/08/11 01:04:07;;;;;;;18.37;6.33;;;16.80;99.90;;;;;;4988242;28;20266;-51
2023/08/11 01:06:42;;;;;;;6.13;5.53;;;16.80;99.90;;;;;;4982142;28;20242;-50
2023/08/11 01:09:18;;;;;;;5.83;5.37;;;16.80;99.90;;;;;;4983491;28;20279;-50
2023/08/11 01:11:56;;;;;;;5.77;5.13;;;16.70;99.90;;;;;;4989706;28;20291;-50
2023/08/11 01:14:31;;;;;;;5.93;5.47;;;16.70;99.90;;;;;;4983978;28;20266;-51
2023/08/11 01:17:01;;;;;;;6.73;6.17;;;16.60;99.90;;;;;;4981742;28;20207;-51
2023/08/11 01:19:32;;;;;;;6.13;5.57;;;16.60;99.90;;;;;;4990590;28;20270;-50
2023/08/11 01:22:02;;;;;;;5.50;5.10;;;16.60;99.90;;;;;;4990331;28;20223;-51
2023/08/11 01:24:31;;;;;;;5.67;5.27;;;16.50;99.90;;;;;;4989307;28;20212;-51
2023/08/11 01:26:59;;;;;;;5.70;5.20;;;16.50;99.90;;;;;;4989378;28;20262;-51
2023/08/11 01:29:26;;;;;;;7.40;6.00;;;16.50;99.90;;;;;;4991591;28;20195;-51
2023/08/11 01:31:53;;;;;;;11.80;6.33;;;16.50;99.90;;;;;;4991510;28;20215;-50
2023/08/11 01:34:20;;;;;;;6.43;5.87;;;16.50;99.90;;;;;;4990162;28;20208;-51
2023/08/11 01:36:47;;;;;;;5.53;5.03;;;16.50;99.90;;;;;;4982241;28;20254;-51
2023/08/11 01:39:14;;;;;;;10.43;5.67;;;16.50;99.90;;;;;;4990658;28;20200;-51
2023/08/11 01:41:43;;;;;;;6.30;5.80;;;16.50;99.90;;;;;;4995026;28;20286;-51
2023/08/11 01:44:10;;;;;;;6.10;5.60;;;16.50;99.90;;;;;;4994740;28;20204;-50
2023/08/11 01:46:38;;;;;;;5.60;5.07;;;16.40;99.90;;;;;;4993133;28;20270;-50
2023/08/11 01:49:05;;;;;;;6.73;6.13;;;16.30;99.90;;;;;;4993780;28;20294;-50
2023/08/11 01:51:32;;;;;;;8.37;6.10;;;16.30;99.90;;;;;;4980297;28;20232;-51
2023/08/11 01:53:59;;;;;;;5.80;5.33;;;16.30;99.90;;;;;;4993253;28;20200;-50
2023/08/11 01:56:27;;;;;;;5.10;4.70;;;16.30;99.90;;;;;;4984829;28;20692;-51
2023/08/11 01:58:57;;;;;;;9.40;5.50;;;16.30;99.90;;;;;;4992696;28;20686;-51
2023/08/11 02:01:24;;;;;;;4.97;4.57;;;16.20;99.90;;;;;;4980379;28;20291;-51
2023/08/11 02:03:52;;;;;;;5.23;4.93;;;16.20;99.90;;;;;;4992804;28;20299;-50
2023/08/11 02:06:19;;;;;;;6.00;5.60;;;16.20;99.90;;;;;;4985647;28;20200;-51
2023/08/11 02:08:46;;;;;;;5.27;4.70;;;16.10;99.90;;;;;;4994936;28;20200;-51
2023/08/11 02:11:14;;;;;;;5.43;5.13;;;16.10;99.90;;;;;;4993039;28;20271;-51
2023/08/11 02:13:41;;;;;;;5.07;4.60;;;16.10;99.90;;;;;;4994338;28;20578;-50
2023/08/11 02:16:09;;;;;;;5.17;4.87;;;16.10;99.90;;;;;;4992321;28;20266;-51
2023/08/11 02:18:36;;;;;;;4.77;4.47;;;16.10;99.90;;;;;;4994414;28;20231;-51
2023/08/11 02:21:03;;;;;;;6.40;6.00;;;16.00;99.90;;;;;;4994257;28;20220;-51
2023/08/11 02:23:30;;;;;;;5.87;5.50;;;16.00;99.90;;;;;;4994308;28;20204;-50
2023/08/11 02:25:57;;;;;;;6.03;5.57;;;16.10;99.90;;;;;;4990887;28;20617;-51
2023/08/11 02:28:25;;;;;;;7.33;6.53;;;16.10;99.90;;;;;;4993443;28;20204;-50
2023/08/11 02:30:52;;;;;;;7.67;5.57;;;16.10;99.90;;;;;;4994065;28;20195;-51
2023/08/11 02:33:22;;;;;;;7.03;6.57;;;16.10;99.90;;;;;;4994026;28;20200;-51
2023/08/11 02:35:49;;;;;;;4.63;4.23;;;16.00;99.90;;;;;;4991329;28;20740;-51
2023/08/11 02:38:16;;;;;;;5.47;4.97;;;16.00;99.90;;;;;;4994129;28;20258;-51
2023/08/11 02:40:44;;;;;;;6.03;5.57;;;16.00;99.90;;;;;;4992488;28;20693;-51
2023/08/11 02:43:11;;;;;;;4.67;4.37;;;16.00;99.90;;;;;;4993786;28;20199;-50
2023/08/11 02:45:38;;;;;;;4.43;4.20;;;16.00;99.90;;;;;;4985615;28;20633;-50
2023/08/11 02:48:05;;;;;;;5.47;5.07;;;16.00;99.90;;;;;;4993431;28;20204;-51
2023/08/11 02:50:33;;;;;;;4.53;4.23;;;16.00;99.90;;;;;;4993506;28;20254;-51
2023/08/11 02:53:01;;;;;;;5.00;4.70;;;16.10;99.90;;;;;;4992005;28;20822;-51
2023/08/11 02:55:28;;;;;;;3.97;3.67;;;16.00;99.90;;;;;;4991968;28;20208;-51
2023/08/11 02:57:55;;;;;;;4.77;4.47;;;16.00;99.90;;;;;;4993563;28;20651;-50
2023/08/11 03:00:22;;;;;;;4.10;3.90;;;16.00;99.90;;;;;;4992921;28;20215;-50
2023/08/11 03:02:49;;;;;;;4.70;4.40;;;16.00;99.90;;;;;;4993361;28;20219;-51
2023/08/11 03:05:17;;;;;;;5.63;5.23;;;15.90;99.90;;;;;;4991284;28;20204;-51
2023/08/11 03:07:45;;;;;;;4.47;4.27;;;15.90;99.90;;;;;;4993524;28;20199;-51
2023/08/11 03:10:12;;;;;;;6.50;4.07;;;15.90;99.90;;;;;;4993536;28;20277;-51
2023/08/11 03:12:39;;;;;;;5.43;5.03;;;15.90;99.90;;;;;;4992542;28;20224;-51
2023/08/11 03:15:08;;;;;;;6.10;5.63;;;15.90;99.90;;;;;;4991482;28;20200;-50
2023/08/11 03:17:36;;;;;;;5.63;5.13;;;16.00;99.90;;;;;;4992126;28;20621;-51
2023/08/11 03:20:07;;;;;;;4.70;4.50;;;16.00;99.90;;;;;;4993142;28;20674;-50
2023/08/11 03:22:34;;;;;;;4.87;4.47;;;16.00;99.90;;;;;;4993016;28;20228;-50
2023/08/11 03:25:02;;;;;;;5.53;5.17;;;15.90;99.90;;;;;;4992605;28;22816;-51
2023/08/11 03:27:29;;;;;;;5.87;5.47;;;15.90;99.90;;;;;;4991853;28;20733;-51
2023/08/11 03:29:56;;;;;;;4.93;4.60;;;15.90;99.90;;;;;;4990171;28;20231;-51
2023/08/11 03:32:23;;;;;;;5.43;4.97;;;15.90;99.90;;;;;;4986703;28;20224;-50
2023/08/11 03:34:49;;;;;;;5.13;4.73;;;15.90;99.90;;;;;;4992465;28;20208;-50
2023/08/11 03:37:16;;;;;;;6.10;5.60;;;15.80;99.90;;;;;;4984773;28;20200;-50
2023/08/11 03:39:43;;;;;;;5.67;5.37;;;15.80;99.90;;;;;;4992970;28;20196;-51
2023/08/11 03:42:12;;;;;;;7.97;5.10;;;15.80;99.90;;;;;;4991277;28;20445;-50
2023/08/11 03:44:39;;;;;;;5.73;5.30;;;15.80;99.90;;;;;;4991875;28;20231;-50
2023/08/11 03:47:06;;;;;;;6.27;4.97;;;15.80;99.90;;;;;;4992887;28;20204;-50
2023/08/11 03:49:33;;;;;;;5.03;4.73;;;15.80;99.90;;;;;;4993125;28;20266;-49
2023/08/11 03:52:00;;;;;;;4.97;4.57;;;15.90;99.90;;;;;;4992536;28;20645;-51
2023/08/11 03:54:27;;;;;;;3.77;3.57;;;15.90;99.90;;;;;;4989837;28;20203;-50
2023/08/11 03:56:54;;;;;;;4.63;4.33;;;16.00;99.90;;;;;;4991200;28;20211;-50
2023/08/11 03:59:22;;;;;;;4.70;4.30;;;16.00;99.90;;;;;;4991747;28;20200;-51
2023/08/11 04:01:49;;;;;;;4.00;3.70;;;16.00;99.90;;;;;;4992296;28;20279;-50
2023/08/11 04:04:17;;;;;;;4.63;4.23;;;16.00;99.90;;;;;;4986714;28;20227;-50
2023/08/11 04:06:44;;;;;;;5.00;4.53;;;16.00;99.90;;;;;;4984655;28;20199;-50
2023/08/11 04:09:12;;;;;;;5.37;4.93;;;16.00;99.90;;;;;;4992338;28;20682;-50
2023/08/11 04:11:40;;;;;;;4.73;4.33;;;16.00;99.90;;;;;;4984252;28;20216;-50
2023/08/11 04:14:07;;;;;;;4.03;3.73;;;16.00;99.90;;;;;;4976412;28;20196;-50
2023/08/11 04:16:36;;;;;;;3.30;3.10;;;16.00;99.90;;;;;;4987806;28;20208;-50
2023/08/11 04:19:03;;;;;;;4.20;3.53;;;16.00;99.90;;;;;;4992213;28;20212;-50
2023/08/11 04:21:30;;;;;;;3.53;3.33;;;16.00;99.90;;;;;;4992151;28;20223;-50
2023/08/11 04:23:57;;;;;;;3.97;3.77;;;16.00;99.90;;;;;;4989140;28;20258;-50
2023/08/11 04:26:24;;;;;;;3.90;3.60;;;16.00;99.90;;;;;;4987020;28;20208;-50
2023/08/11 04:28:51;;;;;;;4.60;4.17;;;16.00;99.90;;;;;;4992102;28;20254;-50
2023/08/11 04:31:19;;;;;;;4.07;3.83;;;16.00;99.90;;;;;;4992112;28;20278;-50
2023/08/11 04:33:47;;;;;;;4.40;4.10;;;16.00;99.90;;;;;;4990066;28;20204;-50
2023/08/11 04:36:14;;;;;;;5.13;4.83;;;16.00;99.90;;;;;;4982238;28;20197;-50
2023/08/11 04:38:41;;;;;;;4.70;4.50;;;16.10;99.90;;;;;;4979861;28;20768;-51
2023/08/11 04:41:08;;;;;;;3.93;3.73;;;16.10;99.90;;;;;;4985441;28;20282;-50
2023/08/11 04:43:35;;;;;;;4.50;4.20;;;16.10;99.90;;;;;;4991938;28;20619;-51
2023/08/11 04:46:03;;;;;;;5.37;5.07;;;16.20;99.90;;;;;;4988389;28;20219;-49
2023/08/11 04:48:30;;;;;;;5.33;4.93;;;16.20;99.90;;;;;;4986821;28;20669;-50
2023/08/11 04:50:59;;;;;;;7.87;4.60;;;16.20;99.90;;;;;;4991404;28;20294;-51
2023/08/11 04:53:27;;;;;;;5.67;4.83;;;16.30;99.90;;;;;;5010361;28;20199;-50
2023/08/11 04:55:54;;;;;;;5.40;4.00;;;16.40;99.90;;;;;;4995364;28;20218;-50
2023/08/11 04:58:20;;;;;;;4.67;4.37;;;16.70;99.90;;;;;;4984336;28;20256;-51
2023/08/11 05:00:48;;;;;;;4.17;3.90;;;16.90;99.90;;;;;;4991594;28;20223;-50
2023/08/11 05:03:15;;;;;;;3.90;3.70;;;17.30;99.90;;;;;;4986030;28;20231;-51
2023/08/11 05:05:44;;;;;;;4.63;4.00;;;17.60;99.90;;;;;;4986241;28;20551;-50
2023/08/11 05:08:13;;;;;;;4.57;4.20;;;17.70;99.90;;;;;;4991158;28;20200;-50
2023/08/11 05:10:40;;;;;;;4.47;4.17;;;17.80;99.90;;;;;;4991657;28;20239;-50
2023/08/11 05:13:06;;;;;;;4.13;3.73;;;18.10;99.90;;;;;;4990274;28;20216;-50
2023/08/11 05:15:33;;;;;;;4.33;4.13;;;18.80;99.90;;;;;;4991076;28;20258;-50
2023/08/11 05:18:01;;;;;;;4.67;4.00;;;19.60;99.90;;;;;;4987330;28;20621;-51
2023/08/11 05:20:28;;;;;;;3.90;3.70;;;20.50;99.90;;;;;;4995699;28;20199;-50
2023/08/11 05:22:55;;;;;;;8.00;4.67;;;21.40;99.90;;;;;;4994099;28;20650;-51
2023/08/11 05:25:23;;;;;;;4.37;4.07;;;22.30;99.90;;;;;;4994226;28;20262;-51
2023/08/11 05:27:50;;;;;;;4.00;3.70;;;23.10;99.90;;;;;;4987035;28;20271;-50
2023/08/11 05:30:18;;;;;;;4.67;4.47;;;23.60;99.90;;;;;;4995232;28;20740;-51
2023/08/11 05:32:45;;;;;;;4.17;3.87;;;24.20;99.90;;;;;;4995092;28;20274;-50
2023/08/11 05:35:12;;;;;;;3.67;3.37;;;24.60;99.90;;;;;;4994296;28;20748;-50
2023/08/11 05:37:39;;;;;;;3.17;2.97;;;25.10;99.90;;;;;;4995116;28;20200;-50
2023/08/11 05:40:08;;;;;;;3.20;3.10;;;25.50;99.90;;;;;;4994901;28;20289;-51
2023/08/11 05:42:37;;;;;;;3.67;3.47;;;25.70;99.90;;;;;;4994968;28;20286;-51
2023/08/11 05:45:05;;;;;;;4.53;4.13;;;26.20;99.90;;;;;;4994179;28;20204;-51
2023/08/11 05:47:31;;;;;;;3.40;3.30;;;26.40;99.90;;;;;;4995068;28;20203;-51
2023/08/11 05:49:58;;;;;;;4.07;3.43;;;26.70;99.90;;;;;;4995084;28;20200;-51
2023/08/11 05:52:25;;;;;;;3.00;2.70;;;26.80;99.90;;;;;;4994442;28;20228;-51
2023/08/11 05:54:52;;;;;;;3.30;3.17;;;26.90;99.90;;;;;;4992224;28;20258;-51
2023/08/11 05:57:20;;;;;;;11.03;3.13;;;27.20;99.90;;;;;;4986241;28;20700;-50
2023/08/11 05:59:48;;;;;;;2.92;2.72;;;27.20;99.90;;;;;;4994649;28;20199;-51
2023/08/11 06:02:15;;;;;;;2.90;2.70;;;27.60;99.90;;;;;;4994339;28;20219;-51
2023/08/11 06:04:44;;;;;;;3.35;3.05;;;28.00;99.90;;;;;;4993339;28;20200;-51
2023/08/11 06:07:11;;;;;;;2.60;2.50;;;28.40;99.90;;;;;;4986928;28;20342;-50
2023/08/11 06:09:39;;;;;;;5.03;3.45;;;28.60;99.90;;;;;;4998007;28;20202;-51
2023/08/11 06:12:06;;;;;;;3.15;2.97;;;28.90;99.90;;;;;;4993557;28;20266;-50
2023/08/11 06:14:33;;;;;;;2.97;2.78;;;29.00;99.90;;;;;;4992266;28;20330;-51
2023/08/11 06:17:01;;;;;;;2.88;2.58;;;29.20;99.90;;;;;;4994360;28;20274;-50
2023/08/11 06:19:28;;;;;;;2.13;2.03;;;29.50;99.90;;;;;;4993691;28;20277;-50
2023/08/11 06:21:55;;;;;;;2.13;2.03;;;30.00;99.90;;;;;;4993927;28;20310;-51
2023/08/11 06:24:23;;;;;;;2.53;2.33;;;29.70;99.90;;;;;;4992378;28;20291;-51
2023/08/11 06:26:51;;;;;;;2.35;2.15;;;29.70;99.90;;;;;;4992799;28;20227;-51
2023/08/11 06:29:18;;;;;;;2.33;2.20;;;29.80;99.90;;;;;;4992357;28;20550;-53
2023/08/11 06:34:17;;;;;;;2.40;2.25;;;30.20;99.90;;;;;;5044966;23;20246;-51
2023/08/11 06:36:45;;;;;;;2.17;2.15;;;30.00;99.90;;;;;;5010819;28;20207;-50
2023/08/11 06:39:12;;;;;;;2.45;2.25;;;30.50;99.90;;;;;;4992724;28;20200;-51
2023/08/11 06:41:40;;;;;;;1.77;1.77;;;30.70;99.90;;;;;;4997213;28;20203;-52
2023/08/11 06:44:07;;;;;;;2.38;2.03;;;30.30;99.90;;;;;;5007121;28;20640;-53
2023/08/11 06:46:34;;;;;;;1.40;1.40;;;30.50;99.90;;;;;;5010774;28;20203;-52
2023/08/11 06:49:02;;;;;;;2.55;2.35;;;31.10;99.90;;;;;;5010688;28;20207;-52
2023/08/11 06:51:30;;;;;;;1.92;1.92;;;31.10;99.90;;;;;;5013331;28;20200;-53
2023/08/11 06:53:57;;;;;;;2.90;2.22;;;31.50;99.90;;;;;;5011271;28;20231;-52
2023/08/11 06:56:24;;;;;;;2.20;2.10;;;31.80;99.90;;;;;;5013375;28;20203;-52
2023/08/11 06:58:52;;;;;;;2.13;1.98;;;31.90;99.90;;;;;;5013393;28;20199;-52
2023/08/11 07:01:19;;;;;;;2.28;2.08;;;32.20;99.90;;;;;;5012823;28;20199;-53
2023/08/11 07:03:46;;;;;;;1.73;1.60;;;32.20;99.90;;;;;;5012483;28;20226;-52
2023/08/11 07:06:13;;;;;;;2.28;2.08;;;32.30;99.90;;;;;;5002183;28;20583;-53
2023/08/11 07:08:42;;;;;;;2.53;2.42;;;32.10;99.90;;;;;;4993579;28;20211;-52
2023/08/11 07:11:09;;;;;;;2.40;2.20;;;32.30;99.90;;;;;;4998224;28;20202;-52
2023/08/11 07:13:36;;;;;;;2.25;2.00;;;32.20;99.90;;;;;;5012876;28;20277;-52
2023/08/11 07:16:03;;;;;;;2.50;2.30;;;32.00;99.90;;;;;;5012685;28;20216;-52
2023/08/11 07:18:30;;;;;;;2.08;2.00;;;31.60;99.90;;;;;;5012796;28;20203;-52
2023/08/11 07:20:57;;;;;;;2.60;2.50;;;31.90;99.90;;;;;;5013110;28;20853;-52
2023/08/11 07:23:24;;;;;;;1.63;1.63;;;31.50;99.90;;;;;;5011831;28;20238;-52
2023/08/11 07:25:53;;;;;;;2.60;2.50;;;31.50;99.90;;;;;;5013195;28;20203;-52
2023/08/11 07:28:20;;;;;;;3.05;1.73;;;31.50;99.90;;;;;;5013325;28;20203;-51
2023/08/11 07:30:47;;;;;;;2.08;1.98;;;31.10;99.90;;;;;;5012989;28;20207;-51
2023/08/11 07:33:14;;;;;;;2.10;1.88;;;31.60;99.90;;;;;;5012303;28;20720;-51
2023/08/11 07:35:41;;;;;;;2.60;2.40;;;31.60;99.90;;;;;;5012638;28;20659;-51
2023/08/11 07:38:08;;;;;;;2.72;2.00;;;31.60;99.90;;;;;;5012046;28;20203;-51
2023/08/11 07:40:35;;;;;;;2.10;2.00;;;32.10;99.90;;;;;;5011143;28;20253;-51
2023/08/11 07:43:04;;;;;;;2.15;2.05;;;32.10;99.90;;;;;;5012124;28;20231;-51
2023/08/11 07:45:32;;;;;;;4.10;2.10;;;32.30;99.90;;;;;;5012053;28;20195;-52
2023/08/11 07:48:00;;;;;;;1.75;1.75;;;32.30;99.90;;;;;;5011591;28;20199;-51
2023/08/11 07:50:27;;;;;;;2.67;2.15;;;32.00;99.90;;;;;;5011183;28;20203;-52
2023/08/11 07:52:54;;;;;;;2.33;2.22;;;32.30;99.90;;;;;;5012079;28;20273;-51
2023/08/11 07:55:21;;;;;;;2.17;2.08;;;32.60;99.60;;;;;;5011448;28;20217;-52
2023/08/11 07:57:48;;;;;;;1.90;1.75;;;32.60;99.60;;;;;;5009823;28;20728;-52
2023/08/11 08:00:19;;;;;;;1.90;1.90;;;33.00;99.00;;;;;;5003459;28;20198;-51
2023/08/11 08:02:46;;;;;;;2.17;2.05;;;33.20;99.90;;;;;;5009470;28;20750;-52
2023/08/11 08:05:13;;;;;;;2.15;1.98;;;33.20;99.20;;;;;;5011831;28;20625;-53
2023/08/11 08:07:41;;;;;;;1.75;1.75;;;33.70;98.20;;;;;;5012125;28;20203;-55
2023/08/11 08:10:09;;;;;;;1.60;1.60;;;33.70;98.60;;;;;;5003746;28;20550;-59
2023/08/11 08:12:37;;;;;;;2.90;1.90;;;33.70;98.10;;;;;;5009920;28;20262;-54
2023/08/11 08:15:05;;;;;;;1.90;1.80;;;33.20;99.40;;;;;;5010953;28;20677;-54
2023/08/11 08:17:34;;;;;;;2.63;2.40;;;33.40;99.90;;;;;;5001441;28;20210;-55
2023/08/11 08:20:01;;;;;;;2.22;2.03;;;33.70;97.70;;;;;;5010189;28;20669;-54
2023/08/11 08:22:28;;;;;;;1.75;1.65;;;33.70;98.80;;;;;;5010845;28;20231;-55
2023/08/11 08:24:56;;;;;;;1.90;1.80;;;33.70;97.50;;;;;;5011669;28;20203;-55
2023/08/11 08:27:24;;;;;;;2.35;2.20;;;33.80;97.30;;;;;;5012101;28;20214;-54
2023/08/11 08:29:53;;;;;;;5.10;2.42;;;34.00;99.90;;;;;;5010991;28;20837;-54
2023/08/11 08:32:20;;;;;;;1.95;1.95;;;34.00;98.70;;;;;;5011420;28;20309;-54
2023/08/11 08:34:49;;;;;;;1.83;1.70;;;33.70;96.20;;;;;;5007465;28;20203;-54
2023/08/11 08:37:17;;;;;;;2.25;2.15;;;33.80;97.90;;;;;;5010759;28;20219;-55
2023/08/11 08:39:44;;;;;;;2.40;2.13;;;33.40;97.60;;;;;;5011697;28;20254;-55
2023/08/11 08:42:13;;;;;;;2.53;2.28;;;33.70;95.30;;;;;;5010594;28;20601;-54
2023/08/11 08:44:42;;;;;;;1.95;1.90;;;33.20;97.20;;;;;;5007666;28;20238;-55
2023/08/11 08:47:09;;;;;;;1.67;1.65;;;33.30;99.10;;;;;;5003442;28;20199;-54
2023/08/11 08:49:37;;;;;;;2.53;1.88;;;33.10;98.80;;;;;;5011431;28;20958;-55
2023/08/11 08:52:06;;;;;;;1.67;1.67;;;33.70;97.20;;;;;;5011325;28;20246;-55
2023/08/11 08:54:34;;;;;;;2.38;2.17;;;33.70;97.30;;;;;;5010823;28;20215;-54
2023/08/11 08:57:02;;;;;;;2.03;2.03;;;33.90;98.10;;;;;;5011270;28;20661;-54
2023/08/11 08:59:29;;;;;;;2.28;2.17;;;34.00;96.40;;;;;;5011420;28;20223;-54
2023/08/11 09:01:58;;;;;;;2.13;1.95;;;33.40;97.10;;;;;;5011226;28;20253;-56
2023/08/11 09:04:26;;;;;;;1.80;1.80;;;33.80;98.40;;;;;;5010516;28;20229;-55
2023/08/11 09:06:54;;;;;;;1.98;1.85;;;33.70;96.50;;;;;;5010537;28;20294;-54
2023/08/11 09:09:23;;;;;;;1.95;1.85;;;34.00;95.10;;;;;;5011230;28;20224;-55
2023/08/11 09:11:50;;;;;;;2.25;2.15;;;34.30;97.40;;;;;;5011158;28;20257;-54
2023/08/11 09:14:21;;;;;;;2.60;2.33;;;34.20;97.20;;;;;;5011033;28;20203;-55
2023/08/11 09:16:51;;;;;;;2.33;2.22;;;33.90;97.30;;;;;;5010832;28;20215;-55
2023/08/11 09:19:20;;;;;;;2.42;2.30;;;34.10;95.90;;;;;;5011304;28;20195;-54
2023/08/11 09:21:48;;;;;;;1.83;1.83;;;34.00;96.20;;;;;;5010244;28;20765;-54
2023/08/11 09:24:17;;;;;;;1.90;1.80;;;34.10;98.80;;;;;;5010954;28;20345;-55
2023/08/11 09:26:49;;;;;;;1.92;1.83;;;34.30;97.10;;;;;;5010209;28;20615;-55
2023/08/11 09:29:17;;;;;;;2.67;2.42;;;34.60;97.90;;;;;;5009005;28;20700;-54
2023/08/11 09:31:47;;;;;;;2.88;2.60;;;34.40;95.60;;;;;;5011237;28;20207;-55
2023/08/11 09:34:15;;;;;;;3.80;1.88;;;34.10;93.70;;;;;;5000568;28;20203;-54
2023/08/11 09:36:45;;;;;;;4.20;1.95;;;34.40;97.50;;;;;;5010998;28;20235;-54
2023/08/11 09:39:13;;;;;;;2.25;2.20;;;34.20;95.20;;;;;;5011126;28;20273;-55
2023/08/11 09:41:42;;;;;;;2.45;2.25;;;34.50;95.70;;;;;;5011319;28;20211;-55
2023/08/11 09:44:11;;;;;;;2.10;1.95;;;34.60;95.40;;;;;;5009780;28;20262;-54
2023/08/11 09:46:39;;;;;;;2.80;2.60;;;34.70;94.20;;;;;;5010869;28;20257;-55
2023/08/11 09:49:07;;;;;;;1.88;1.88;;;35.10;94.70;;;;;;5010993;28;20245;-54
2023/08/11 09:51:35;;;;;;;1.80;1.80;;;35.60;93.30;;;;;;5010091;28;20339;-54
2023/08/11 09:54:06;;;;;;;2.58;2.55;;;35.40;94.90;;;;;;5010759;28;20247;-55
2023/08/11 09:56:36;;;;;;;4.10;3.90;;;35.20;95.80;;;;;;5010942;28;20211;-54
2023/08/11 09:59:05;;;;;;;3.90;3.70;;;34.80;97.00;;;;;;5010846;28;20661;-54
2023/08/11 10:01:36;;;;;;;4.07;3.88;;;34.90;96.70;;;;;;5006256;28;20231;-54
2023/08/11 10:04:10;;;;;;;4.45;4.03;;;34.60;95.90;;;;;;5004648;28;20310;-55
2023/08/11 10:06:42;;;;;;;4.25;3.92;;;34.30;96.60;;;;;;5013577;28;20443;-54
2023/08/11 10:09:13;;;;;;;4.22;3.97;;;34.30;96.50;;;;;;5014199;28;20206;-54
2023/08/11 10:11:43;;;;;;;3.80;3.60;;;34.50;95.70;;;;;;5011510;28;20200;-55
2023/08/11 10:14:14;;;;;;;3.70;3.55;;;34.80;96.70;;;;;;5005901;28;20219;-53
2023/08/11 10:16:42;;;;;;;6.20;4.47;;;34.30;96.00;;;;;;5014237;28;20257;-58
2023/08/11 10:19:10;;;;;;;3.83;3.53;;;33.80;95.50;;;;;;5013916;28;20203;-59
2023/08/11 10:21:37;;;;;;;3.45;3.33;;;33.60;97.50;;;;;;5013961;28;20203;-58
2023/08/11 10:24:06;;;;;;;3.03;3.03;;;33.60;97.00;;;;;;5010448;28;20235;-58
2023/08/11 10:26:34;;;;;;;3.33;3.08;;;33.80;96.20;;;;;;5009181;28;20199;-58
2023/08/11 10:29:02;;;;;;;3.35;3.25;;;33.70;96.40;;;;;;5013738;28;20528;-58
2023/08/11 10:31:32;;;;;;;3.13;3.03;;;33.30;97.10;;;;;;5014049;28;20293;-53
2023/08/11 10:34:06;;;;;;;3.75;3.55;;;33.20;96.50;;;;;;5012231;28;20223;-53
2023/08/11 10:36:34;;;;;;;3.40;3.15;;;32.90;96.70;;;;;;5009443;28;20203;-54
2023/08/11 10:39:03;;;;;;;2.97;2.88;;;32.30;96.80;;;;;;5004528;28;20525;-53
2023/08/11 10:41:31;;;;;;;2.53;2.42;;;31.60;95.70;;;;;;5013044;28;20202;-54
2023/08/11 10:43:59;;;;;;;2.58;2.47;;;31.90;97.30;;;;;;5011654;28;20227;-54
2023/08/11 10:46:27;;;;;;;2.35;2.25;;;31.90;95.80;;;;;;5013326;28;20203;-54
2023/08/11 10:48:58;;;;;;;2.95;2.85;;;31.80;95.30;;;;;;5009164;28;20204;-54
2023/08/11 10:51:27;;;;;;;2.22;2.15;;;32.20;94.40;;;;;;5007441;28;20273;-53
2023/08/11 10:53:56;;;;;;;1.85;1.75;;;32.50;93.80;;;;;;5011368;28;20747;-53
2023/08/11 10:56:32;;;;;;;3.50;2.30;;;32.30;96.00;;;;;;5013385;28;20199;-53
2023/08/11 10:59:09;;;;;;;2.83;2.63;;;32.20;96.20;;;;;;5013195;28;20207;-53
2023/08/11 11:01:38;;;;;;;2.83;2.72;;;32.00;94.30;;;;;;5012193;28;20203;-54
2023/08/11 11:04:06;;;;;;;1.92;1.92;;;31.70;93.90;;;;;;5011760;28;20233;-53
2023/08/11 11:06:35;;;;;;;2.53;2.28;;;31.50;95.90;;;;;;5013208;28;20230;-53
2023/08/11 11:09:02;;;;;;;2.30;2.20;;;31.30;97.40;;;;;;5012953;28;20257;-53
2023/08/11 11:11:30;;;;;;;3.13;2.92;;;31.00;96.20;;;;;;5012632;28;20294;-53
2023/08/11 11:13:57;;;;;;;2.58;2.47;;;31.00;96.50;;;;;;5007167;28;20693;-54
2023/08/11 11:16:24;;;;;;;2.33;2.33;;;30.70;96.00;;;;;;5012695;28;20233;-53
2023/08/11 11:18:51;;;;;;;2.25;2.15;;;30.50;96.90;;;;;;5013028;28;20199;-53
2023/08/11 11:21:19;;;;;;;2.78;2.55;;;30.50;98.00;;;;;;5012927;28;20199;-53
2023/08/11 11:23:48;;;;;;;2.90;2.80;;;30.40;96.90;;;;;;5010158;28;20254;-53
2023/08/11 11:26:21;;;;;;;2.97;2.33;;;30.00;98.40;;;;;;5004496;28;20200;-53
2023/08/11 11:28:48;;;;;;;2.05;2.05;;;30.10;97.70;;;;;;5007136;28;20199;-53
2023/08/11 11:31:16;;;;;;;2.33;2.22;;;30.00;98.60;;;;;;5012391;28;20915;-53
2023/08/11 11:33:43;;;;;;;3.13;2.20;;;29.90;97.70;;;;;;5011694;28;20336;-53
2023/08/11 11:36:11;;;;;;;2.40;2.33;;;29.70;97.60;;;;;;5012308;28;20257;-53
2023/08/11 11:38:38;;;;;;;2.63;2.53;;;29.50;98.30;;;;;;5010972;28;20215;-53
2023/08/11 11:41:10;;;;;;;3.22;3.00;;;29.60;98.10;;;;;;5011337;28;20210;-52
2023/08/11 11:43:37;;;;;;;2.65;2.42;;;29.50;98.70;;;;;;5011932;28;20227;-53
2023/08/11 11:46:11;;;;;;;2.40;2.30;;;29.40;98.90;;;;;;5012107;28;20630;-53
2023/08/11 11:48:39;;;;;;;3.20;2.65;;;29.20;98.00;;;;;;5010659;28;20580;-53
2023/08/11 11:51:06;;;;;;;2.20;2.10;;;29.10;98.80;;;;;;5009307;28;20238;-54
2023/08/11 11:53:33;;;;;;;1.90;1.90;;;28.90;99.00;;;;;;5011830;28;20306;-52
2023/08/11 11:56:03;;;;;;;2.50;2.40;;;28.90;98.60;;;;;;5009172;28;20574;-53
2023/08/11 11:58:33;;;;;;;2.28;2.08;;;28.90;99.10;;;;;;5006907;28;20673;-53
2023/08/11 12:01:10;;;;;;;2.20;2.08;;;28.90;98.30;;;;;;5012010;28;20705;-53
2023/08/11 12:03:37;;;;;;;2.40;2.35;;;28.80;99.10;;;;;;4994258;28;20251;-52
2023/08/11 12:06:05;;;;;;;2.00;1.90;;;28.80;99.40;;;;;;4991937;28;20270;-53
2023/08/11 12:08:34;;;;;;;2.38;2.00;;;28.90;99.90;;;;;;4992396;28;20667;-52
2023/08/11 12:11:01;;;;;;;3.60;3.40;;;29.00;99.90;;;;;;4993389;28;20281;-53
2023/08/11 12:13:31;;;;;;;3.08;2.15;;;29.00;99.90;;;;;;5011361;28;20596;-53
2023/08/11 12:16:00;;;;;;;2.85;2.75;;;29.00;99.90;;;;;;5011744;28;20612;-54
2023/08/11 12:18:29;;;;;;;2.28;2.17;;;29.10;99.90;;;;;;5010802;28;20218;-53
2023/08/11 12:20:59;;;;;;;2.30;2.20;;;29.10;99.90;;;;;;5010685;28;20276;-53
2023/08/11 12:23:28;;;;;;;3.17;2.88;;;29.00;99.90;;;;;;5011072;28;20548;-58
2023/08/11 12:25:55;;;;;;;2.25;2.08;;;29.00;99.80;;;;;;5007110;28;20203;-56
2023/08/11 12:28:22;;;;;;;2.35;2.30;;;28.90;99.90;;;;;;5008297;28;20204;-54
2023/08/11 12:30:51;;;;;;;2.03;1.92;;;28.90;99.90;;;;;;5007682;28;20207;-55
2023/08/11 12:33:18;;;;;;;2.10;2.00;;;29.00;99.90;;;;;;5010926;28;20767;-57
2023/08/11 12:35:46;;;;;;;2.05;1.90;;;29.10;99.90;;;;;;5011491;28;20203;-58
2023/08/11 12:38:13;;;;;;;2.60;2.17;;;29.10;99.90;;;;;;5010720;28;20281;-55
2023/08/11 12:40:40;;;;;;;1.65;1.65;;;29.10;99.90;;;;;;5010563;28;20294;-57
2023/08/11 12:43:08;;;;;;;1.75;1.75;;;29.00;99.90;;;;;;5008866;28;20218;-57
2023/08/11 12:45:35;;;;;;;2.25;2.10;;;29.00;99.90;;;;;;5005028;28;20234;-55
2023/08/11 12:48:04;;;;;;;2.85;2.65;;;28.80;99.50;;;;;;4991968;28;20199;-51
2023/08/11 12:50:31;;;;;;;2.40;2.20;;;28.90;99.90;;;;;;4995953;28;20199;-51
2023/08/11 12:53:02;;;;;;;2.03;1.92;;;29.00;99.90;;;;;;5008558;28;20712;-50